Tokyo Maru — JG5666 — position and weather

sailwx.info

Track history (hours):
 
Tides and Currents Weather Stations Pressure Air Temp Water Temp Dewpoint Dewpoint Depression Visibility Wind Speed Wind Dir Waves Ship Positions

Tokyo Maru

Last reported at 2017-Dec-11 09:27 UTC. Time now 2017-Dec-13 19:04 UTC.
Position N 35°38' E 139°46'.

Length 40 m; draft 4 m.

Type: Tug. MMSI: 431100997.

Date/timePositionNaut miles runAvg speedWind from/ knotsBaromVisibWave heightAir tempDewpointWater temp
2017-Dec-11 09:27N 35°38' E 139°46'1 2.8
2017-Dec-11 09:00N 35°37' E 139°46'3 6.0
2017-Dec-11 08:30N 35°35' E 139°48'1 1.5
2017-Dec-11 07:59N 35°35' E 139°47'0 0.7
2017-Dec-11 07:22N 35°36' E 139°47'2 4.8
2017-Dec-11 07:00N 35°37' E 139°46'1 2.4
2017-Dec-11 06:30N 35°36' E 139°46'0 1.0
2017-Dec-11 05:58N 35°36' E 139°47'3 5.4
2017-Dec-11 05:22N 35°39' E 139°46'0 0.0
2017-Dec-11 02:53N 35°39' E 139°46'0 0.0
2017-Dec-10 23:27N 35°39' E 139°46'0 0.0
2017-Dec-10 21:54N 35°39' E 139°46'0 0.0
2017-Dec-10 21:19N 35°39' E 139°46'0 0.0
2017-Dec-10 20:59N 35°39' E 139°46'0 0.0
2017-Dec-10 20:30N 35°39' E 139°46'0 0.0
2017-Dec-10 20:00N 35°39' E 139°46'0 0.0
2017-Dec-10 19:29N 35°39' E 139°46'0 0.0
2017-Dec-10 19:00N 35°39' E 139°46'0 0.0
2017-Dec-10 18:18N 35°39' E 139°46'0 0.0
2017-Dec-10 09:29N 35°39' E 139°46'0 0.0
2017-Dec-10 08:54N 35°39' E 139°46'0 0.0
2017-Dec-10 08:24N 35°39' E 139°46'1 2.3
2017-Dec-10 08:00N 35°38' E 139°46'2 3.4
2017-Dec-10 07:30N 35°36' E 139°46'0 0.5
2017-Dec-10 06:59N 35°36' E 139°46'0 0.1
2017-Dec-10 06:30N 35°36' E 139°46'2 4.7
2017-Dec-10 06:00N 35°39' E 139°46'0 0.0
2017-Dec-10 05:23N 35°39' E 139°46'0 0.0
2017-Dec-10 04:58N 35°39' E 139°46'0 0.0
2017-Dec-10 04:19N 35°39' E 139°46'0 0.0
2017-Dec-10 03:57N 35°39' E 139°46'0 0.0
2017-Dec-10 03:21N 35°39' E 139°46'0 0.0
2017-Dec-10 02:50N 35°39' E 139°46'0 0.0
2017-Dec-10 02:29N 35°39' E 139°46'0 0.0
2017-Dec-10 01:46N 35°39' E 139°46'0 0.0
2017-Dec-10 01:29N 35°39' E 139°46'0 0.0
2017-Dec-10 00:57N 35°39' E 139°46'0 0.0
2017-Dec-09 23:58N 35°39' E 139°46'0 0.0
2017-Dec-09 23:20N 35°39' E 139°46'2 5.7
2017-Dec-09 23:00N 35°37' E 139°46'1 1.2
2017-Dec-09 22:29N 35°36' E 139°46'3 5.9
2017-Dec-09 22:00N 35°34' E 139°49'2 4.1
2017-Dec-09 21:30N 35°35' E 139°47'0 0.0
2017-Dec-09 21:00N 35°35' E 139°47'1 2.9
2017-Dec-09 20:30N 35°37' E 139°47'1 1.5
2017-Dec-09 20:01N 35°37' E 139°46'2 2.3
2017-Dec-09 19:17N 35°39' E 139°46'0 0.0
2017-Dec-09 15:45N 35°39' E 139°46'0 0.0
2017-Dec-09 13:28N 35°39' E 139°46'0 0.0
2017-Dec-09 09:34N 35°39' E 139°46'0 0.0
2017-Dec-09 09:11N 35°39' E 139°46'0 0.0
2017-Dec-08 23:16N 35°39' E 139°46'3 9.0
2017-Dec-08 22:59N 35°36' E 139°46'1 1.8
2017-Dec-08 22:30N 35°36' E 139°47'2 3.6
2017-Dec-08 22:00N 35°34' E 139°49'3 6.1
2017-Dec-08 21:28N 35°34' E 139°53'4 8.6
2017-Dec-08 21:01N 35°35' E 139°48'2 3.6
2017-Dec-08 20:29N 35°36' E 139°46'2 3.3
2017-Dec-08 20:00N 35°38' E 139°46'1 0.8
2017-Dec-08 19:23N 35°38' E 139°46'0 0.0
2017-Dec-08 19:00N 35°38' E 139°46'0 0.0
2017-Dec-08 18:30N 35°38' E 139°46'0 0.0
2017-Dec-08 18:00N 35°38' E 139°46'0 0.0
2017-Dec-08 17:30N 35°38' E 139°46'0 0.0
2017-Dec-08 17:00N 35°38' E 139°46'0 0.0
2017-Dec-08 16:29N 35°38' E 139°46'0 0.0
2017-Dec-08 14:50N 35°38' E 139°46'0 0.0
2017-Dec-08 14:30N 35°38' E 139°46'0 0.0
2017-Dec-08 13:57N 35°38' E 139°46'0 0.0
2017-Dec-08 13:25N 35°38' E 139°46'0 0.0
2017-Dec-08 13:00N 35°38' E 139°46'0 0.0
2017-Dec-08 12:28N 35°38' E 139°46'0 0.0
2017-Dec-08 12:00N 35°38' E 139°46'0 0.0
2017-Dec-08 11:30N 35°38' E 139°46'0 0.0
2017-Dec-08 10:57N 35°38' E 139°46'0 0.0
2017-Dec-08 10:30N 35°38' E 139°46'0 0.0
2017-Dec-08 10:00N 35°38' E 139°46'0 0.0
2017-Dec-08 09:29N 35°38' E 139°46'0 0.0
2017-Dec-08 09:00N 35°38' E 139°46'0 0.0
2017-Dec-08 08:29N 35°38' E 139°46'0 0.0
2017-Dec-08 07:59N 35°38' E 139°46'0 0.0
2017-Dec-08 07:21N 35°38' E 139°46'0 0.0
2017-Dec-08 07:00N 35°38' E 139°46'0 0.0
2017-Dec-08 06:30N 35°38' E 139°46'0 0.0
2017-Dec-08 05:52N 35°38' E 139°46'0 0.1
2017-Dec-08 05:30N 35°38' E 139°46'0 0.0
2017-Dec-08 04:56N 35°38' E 139°46'2 3.9
2017-Dec-08 04:30N 35°37' E 139°47'1 1.5
2017-Dec-08 04:00N 35°37' E 139°48'2 0.9
2017-Dec-08 01:29N 35°38' E 139°46'0 0.0
2017-Dec-08 00:42N 35°38' E 139°46'0 0.0
2017-Dec-07 23:59N 35°38' E 139°46'0 0.0
2017-Dec-07 23:30N 35°38' E 139°46'0 0.0
2017-Dec-07 22:56N 35°38' E 139°46'0 0.0
2017-Dec-07 22:23N 35°38' E 139°46'0 0.0
2017-Dec-07 21:55N 35°38' E 139°46'0 0.0
2017-Dec-07 21:29N 35°38' E 139°46'0 0.0
2017-Dec-07 21:00N 35°38' E 139°46'0 0.0
2017-Dec-07 20:28N 35°38' E 139°46'0 0.0
2017-Dec-07 20:00N 35°38' E 139°46'0 0.0
2017-Dec-07 19:30N 35°38' E 139°46'0 0.0
2017-Dec-07 19:00N 35°38' E 139°46'0 0.0
2017-Dec-07 18:30N 35°38' E 139°46'0 0.0
2017-Dec-07 17:59N 35°38' E 139°46'0 0.0
2017-Dec-07 17:30N 35°38' E 139°46'0 0.0
2017-Dec-07 17:00N 35°38' E 139°46'0 0.0
2017-Dec-07 16:28N 35°38' E 139°46'0 0.0
2017-Dec-07 16:00N 35°38' E 139°46'0 0.0
2017-Dec-07 15:30N 35°38' E 139°46'0 0.0
2017-Dec-07 14:57N 35°38' E 139°46'0 0.0
2017-Dec-07 14:25N 35°38' E 139°46'0 0.0
2017-Dec-07 14:00N 35°38' E 139°46'0 0.0
2017-Dec-07 13:30N 35°38' E 139°46'0 0.0
2017-Dec-07 13:00N 35°38' E 139°46'0 0.0
2017-Dec-07 11:47N 35°38' E 139°46'0 0.0
2017-Dec-07 11:14N 35°38' E 139°46'0 0.0
2017-Dec-07 10:55N 35°38' E 139°46'0 0.0
2017-Dec-07 10:03N 35°38' E 139°46'0 0.0
2017-Dec-07 10:00N 35°38' E 139°46'0 0.0
2017-Dec-07 09:14N 35°38' E 139°46'2 7.7
2017-Dec-07 09:00N 35°37' E 139°47'0 0.2
2017-Dec-07 08:30N 35°37' E 139°46'2 2.5
2017-Dec-07 07:50N 35°38' E 139°46'0 0.0
2017-Dec-07 07:22N 35°38' E 139°46'0 0.0
2017-Dec-07 06:59N 35°38' E 139°46'0 0.0
2017-Dec-07 06:25N 35°38' E 139°46'0 0.0
2017-Dec-07 05:53N 35°38' E 139°46'0 0.0
2017-Dec-07 05:30N 35°38' E 139°46'0 0.0
2017-Dec-07 04:59N 35°38' E 139°46'0 0.0
2017-Dec-07 04:24N 35°38' E 139°46'0 0.0
2017-Dec-07 03:59N 35°38' E 139°46'0 0.0
2017-Dec-07 03:27N 35°38' E 139°46'1 1.3
2017-Dec-07 03:00N 35°38' E 139°46'1 1.1
2017-Dec-07 02:30N 35°37' E 139°46'4 7.1
2017-Dec-07 02:01N 35°34' E 139°49'3 5.1
2017-Dec-07 01:29N 35°36' E 139°46'2 5.0
2017-Dec-07 00:59N 35°39' E 139°46'0 0.0
2017-Dec-07 00:29N 35°39' E 139°46'0 0.0
2017-Dec-06 23:38N 35°39' E 139°46'0 0.0
2017-Dec-06 23:29N 35°39' E 139°46'2 4.6
2017-Dec-06 23:00N 35°37' E 139°47'3 5.3
2017-Dec-06 22:31N 35°34' E 139°48'1 1.7
2017-Dec-06 22:01N 35°35' E 139°47'4 4.1
2017-Dec-06 21:00N 35°39' E 139°46'  
2017-Dec-04 00:40N 35°39' E 139°46'210.4
2017-Dec-04 00:31N 35°37' E 139°46'1 2.8
2017-Dec-03 23:59N 35°36' E 139°47'2 3.5
2017-Dec-03 23:30N 35°35' E 139°48'1 2.9
2017-Dec-03 23:00N 35°36' E 139°48'0 0.0
2017-Dec-03 22:30N 35°36' E 139°48'0 0.0
2017-Dec-03 22:00N 35°36' E 139°48'0 0.0
2017-Dec-03 21:29N 35°36' E 139°48'1 1.8
2017-Dec-03 21:00N 35°37' E 139°47'2 3.7
2017-Dec-03 20:29N 35°38' E 139°45'0 0.2
2017-Dec-03 19:58N 35°38' E 139°46'0 0.0
2017-Dec-03 18:12N 35°38' E 139°46'0 0.0
2017-Dec-03 17:58N 35°38' E 139°46'0 0.0
2017-Dec-03 17:30N 35°38' E 139°46'0 0.0
2017-Dec-03 16:59N 35°38' E 139°46'0 0.0
2017-Dec-03 16:29N 35°38' E 139°46'0 0.0
2017-Dec-03 16:00N 35°38' E 139°46'0 0.0
2017-Dec-03 15:30N 35°38' E 139°46'0 0.0
2017-Dec-03 15:00N 35°38' E 139°46'0 0.0
2017-Dec-03 14:30N 35°38' E 139°46'0 0.0
2017-Dec-03 14:00N 35°38' E 139°46'0 0.0
2017-Dec-03 13:28N 35°38' E 139°46'0 0.0
2017-Dec-03 12:59N 35°38' E 139°46'0 0.0
2017-Dec-03 12:30N 35°38' E 139°46'0 0.0
2017-Dec-03 11:58N 35°38' E 139°46'0 0.0
2017-Dec-03 11:30N 35°38' E 139°46'0 0.0
2017-Dec-03 11:00N 35°38' E 139°46'0 0.0
2017-Dec-03 10:16N 35°38' E 139°46'0 0.0
2017-Dec-03 09:59N 35°38' E 139°46'0 0.0
2017-Dec-03 09:30N 35°38' E 139°46'0 0.0
2017-Dec-03 08:51N 35°38' E 139°46'0 0.0
2017-Dec-03 08:09N 35°38' E 139°46'0 0.0
2017-Dec-03 07:59N 35°38' E 139°46'0 0.0
2017-Dec-03 03:55N 35°38' E 139°46'0 0.0
2017-Dec-03 02:35N 35°38' E 139°46'0 0.0
2017-Dec-03 02:26N 35°38' E 139°46'0 0.0
2017-Dec-03 02:00N 35°38' E 139°46'0 0.0
2017-Dec-03 01:30N 35°38' E 139°46'0 0.0
2017-Dec-03 01:00N 35°38' E 139°46'0 0.0
2017-Dec-03 00:30N 35°38' E 139°46'0 0.0
2017-Dec-03 00:00N 35°38' E 139°46'0 0.0
2017-Dec-02 23:30N 35°38' E 139°46'0 0.0
2017-Dec-02 22:57N 35°38' E 139°46'0 0.0
2017-Dec-02 22:30N 35°38' E 139°46'0 0.0
2017-Dec-02 22:00N 35°38' E 139°46'0 0.0
2017-Dec-02 21:30N 35°38' E 139°46'0 0.0
2017-Dec-02 21:00N 35°38' E 139°46'0 0.0
2017-Dec-02 20:30N 35°38' E 139°46'0 0.0
2017-Dec-02 20:00N 35°38' E 139°46'0 0.0
2017-Dec-02 19:30N 35°38' E 139°46'0 0.0
2017-Dec-02 19:00N 35°38' E 139°46'0 0.0
2017-Dec-02 18:30N 35°38' E 139°46'0 0.0
2017-Dec-02 17:53N 35°38' E 139°46'0 0.0
2017-Dec-02 17:18N 35°38' E 139°46'0 0.0
2017-Dec-02 16:58N 35°38' E 139°46'0 0.0
2017-Dec-02 16:30N 35°38' E 139°46'0 0.0
2017-Dec-02 16:00N 35°38' E 139°46'0 0.0
2017-Dec-02 15:30N 35°38' E 139°46'0 0.0
2017-Dec-02 14:59N 35°38' E 139°46'0 0.0
2017-Dec-02 14:27N 35°38' E 139°46'0 0.0
2017-Dec-02 14:00N 35°38' E 139°46'0 0.0
2017-Dec-02 13:30N 35°38' E 139°46'0 0.0
2017-Dec-02 13:00N 35°38' E 139°46'0 0.0
2017-Dec-02 12:30N 35°38' E 139°46'0 0.0
2017-Dec-02 12:00N 35°38' E 139°46'0 0.0
2017-Dec-02 11:30N 35°38' E 139°46'0 0.0
2017-Dec-02 11:00N 35°38' E 139°46'0 0.0
2017-Dec-02 10:30N 35°38' E 139°46'2 3.6
2017-Dec-02 10:00N 35°37' E 139°47'0 0.0
2017-Dec-02 09:30N 35°37' E 139°47'2 4.1
2017-Dec-02 09:00N 35°35' E 139°48'1 2.9
2017-Dec-02 08:31N 35°34' E 139°49'3 5.8
2017-Dec-02 08:00N 35°36' E 139°47'0 0.3
2017-Dec-02 07:30N 35°36' E 139°47'2 4.2
2017-Dec-02 07:01N 35°38' E 139°45'0 0.1
2017-Dec-02 06:30N 35°38' E 139°46'0 0.0
2017-Dec-02 06:00N 35°38' E 139°46'1 1.1
2017-Dec-02 05:30N 35°39' E 139°46'0 0.0
2017-Dec-02 05:01N 35°39' E 139°46'0 0.0
2017-Dec-02 04:30N 35°39' E 139°46'0 0.0
2017-Dec-02 04:00N 35°39' E 139°46'0 0.0
2017-Dec-02 03:20N 35°39' E 139°46'0 0.0
2017-Dec-02 02:58N 35°39' E 139°46'0 0.0
2017-Dec-02 02:30N 35°39' E 139°46'0 0.0
2017-Dec-02 02:00N 35°39' E 139°46'0 0.0
2017-Dec-02 01:31N 35°39' E 139°46'0 0.0
2017-Dec-02 01:00N 35°39' E 139°46'0 0.0
2017-Dec-02 00:30N 35°39' E 139°46'0 0.0
2017-Dec-02 00:00N 35°39' E 139°46'0 0.0
2017-Dec-01 23:30N 35°39' E 139°46'3 5.6
2017-Dec-01 23:00N 35°36' E 139°46'0 0.6
2017-Dec-01 22:30N 35°36' E 139°47'2 4.9
2017-Dec-01 22:00N 35°34' E 139°49'4 8.9
2017-Dec-01 21:30N 35°38' E 139°46'1 1.3
2017-Dec-01 20:50N 35°39' E 139°46'0 0.0
2017-Dec-01 20:30N 35°39' E 139°46'0 0.0
2017-Dec-01 19:50N 35°39' E 139°46'0 0.0
2017-Dec-01 19:14N 35°39' E 139°46'0 0.0
2017-Dec-01 18:50N 35°39' E 139°46'0 0.0
2017-Dec-01 18:28N 35°39' E 139°46'0 0.0
2017-Dec-01 18:00N 35°39' E 139°46'0 0.0
2017-Dec-01 17:16N 35°39' E 139°46'0 0.0
2017-Dec-01 16:59N 35°39' E 139°46'0 0.0
2017-Dec-01 16:30N 35°39' E 139°46'0 0.0
2017-Dec-01 16:00N 35°39' E 139°46'0 0.0
2017-Dec-01 15:29N 35°39' E 139°46'0 0.0
2017-Dec-01 15:00N 35°39' E 139°46'0 0.0
2017-Dec-01 14:30N 35°39' E 139°46'0 0.0
2017-Dec-01 14:00N 35°39' E 139°46'0 0.0
2017-Dec-01 13:30N 35°39' E 139°46'0 0.0
2017-Dec-01 12:56N 35°39' E 139°46'0 0.0
2017-Dec-01 12:18N 35°39' E 139°46'0 0.0
2017-Dec-01 12:00N 35°39' E 139°46'0 0.0
2017-Dec-01 11:29N 35°39' E 139°46'0 0.0
2017-Dec-01 10:58N 35°39' E 139°46'0 0.0
2017-Dec-01 10:30N 35°39' E 139°46'2 4.5
2017-Dec-01 10:01N 35°37' E 139°47'1 1.1
2017-Dec-01 09:31N 35°36' E 139°47'  
Track history (hours):
 
Tides and Currents Weather Stations Pressure Air Temp Water Temp Dewpoint Dewpoint Depression Visibility Wind Speed Wind Dir Waves Ship Positions

Tokyo Maru

Last reported at 2017-Dec-11 09:27 UTC. Time now 2017-Dec-13 19:04 UTC.
Position N 35°38' E 139°46'.

Length 40 m; draft 4 m.

Type: Tug. MMSI: 431100997.

Date/timePositionNaut miles runAvg speedWind from/ knotsBaromVisibWave heightAir tempDewpointWater temp
2017-Dec-11 09:27N 35°38' E 139°46'1 2.8
2017-Dec-11 09:00N 35°37' E 139°46'3 6.0
2017-Dec-11 08:30N 35°35' E 139°48'1 1.5
2017-Dec-11 07:59N 35°35' E 139°47'0 0.7
2017-Dec-11 07:22N 35°36' E 139°47'2 4.8
2017-Dec-11 07:00N 35°37' E 139°46'1 2.4
2017-Dec-11 06:30N 35°36' E 139°46'0 1.0
2017-Dec-11 05:58N 35°36' E 139°47'3 5.4
2017-Dec-11 05:22N 35°39' E 139°46'0 0.0
2017-Dec-11 02:53N 35°39' E 139°46'0 0.0
2017-Dec-10 23:27N 35°39' E 139°46'0 0.0
2017-Dec-10 21:54N 35°39' E 139°46'0 0.0
2017-Dec-10 21:19N 35°39' E 139°46'0 0.0
2017-Dec-10 20:59N 35°39' E 139°46'0 0.0
2017-Dec-10 20:30N 35°39' E 139°46'0 0.0
2017-Dec-10 20:00N 35°39' E 139°46'0 0.0
2017-Dec-10 19:29N 35°39' E 139°46'0 0.0
2017-Dec-10 19:00N 35°39' E 139°46'0 0.0
2017-Dec-10 18:18N 35°39' E 139°46'0 0.0
2017-Dec-10 09:29N 35°39' E 139°46'0 0.0
2017-Dec-10 08:54N 35°39' E 139°46'0 0.0
2017-Dec-10 08:24N 35°39' E 139°46'1 2.3
2017-Dec-10 08:00N 35°38' E 139°46'2 3.4
2017-Dec-10 07:30N 35°36' E 139°46'0 0.5
2017-Dec-10 06:59N 35°36' E 139°46'0 0.1
2017-Dec-10 06:30N 35°36' E 139°46'2 4.7
2017-Dec-10 06:00N 35°39' E 139°46'0 0.0
2017-Dec-10 05:23N 35°39' E 139°46'0 0.0
2017-Dec-10 04:58N 35°39' E 139°46'0 0.0
2017-Dec-10 04:19N 35°39' E 139°46'0 0.0
2017-Dec-10 03:57N 35°39' E 139°46'0 0.0
2017-Dec-10 03:21N 35°39' E 139°46'0 0.0
2017-Dec-10 02:50N 35°39' E 139°46'0 0.0
2017-Dec-10 02:29N 35°39' E 139°46'0 0.0
2017-Dec-10 01:46N 35°39' E 139°46'0 0.0
2017-Dec-10 01:29N 35°39' E 139°46'0 0.0
2017-Dec-10 00:57N 35°39' E 139°46'0 0.0
2017-Dec-09 23:58N 35°39' E 139°46'0 0.0
2017-Dec-09 23:20N 35°39' E 139°46'2 5.7
2017-Dec-09 23:00N 35°37' E 139°46'1 1.2
2017-Dec-09 22:29N 35°36' E 139°46'3 5.9
2017-Dec-09 22:00N 35°34' E 139°49'2 4.1
2017-Dec-09 21:30N 35°35' E 139°47'0 0.0
2017-Dec-09 21:00N 35°35' E 139°47'1 2.9
2017-Dec-09 20:30N 35°37' E 139°47'1 1.5
2017-Dec-09 20:01N 35°37' E 139°46'2 2.3
2017-Dec-09 19:17N 35°39' E 139°46'0 0.0
2017-Dec-09 15:45N 35°39' E 139°46'0 0.0
2017-Dec-09 13:28N 35°39' E 139°46'0 0.0
2017-Dec-09 09:34N 35°39' E 139°46'0 0.0
2017-Dec-09 09:11N 35°39' E 139°46'0 0.0
2017-Dec-08 23:16N 35°39' E 139°46'3 9.0
2017-Dec-08 22:59N 35°36' E 139°46'1 1.8
2017-Dec-08 22:30N 35°36' E 139°47'2 3.6
2017-Dec-08 22:00N 35°34' E 139°49'3 6.1
2017-Dec-08 21:28N 35°34' E 139°53'4 8.6
2017-Dec-08 21:01N 35°35' E 139°48'2 3.6
2017-Dec-08 20:29N 35°36' E 139°46'2 3.3
2017-Dec-08 20:00N 35°38' E 139°46'1 0.8
2017-Dec-08 19:23N 35°38' E 139°46'0 0.0
2017-Dec-08 19:00N 35°38' E 139°46'0 0.0
2017-Dec-08 18:30N 35°38' E 139°46'0 0.0
2017-Dec-08 18:00N 35°38' E 139°46'0 0.0
2017-Dec-08 17:30N 35°38' E 139°46'0 0.0
2017-Dec-08 17:00N 35°38' E 139°46'0 0.0
2017-Dec-08 16:29N 35°38' E 139°46'0 0.0
2017-Dec-08 14:50N 35°38' E 139°46'0 0.0
2017-Dec-08 14:30N 35°38' E 139°46'0 0.0
2017-Dec-08 13:57N 35°38' E 139°46'0 0.0
2017-Dec-08 13:25N 35°38' E 139°46'0 0.0
2017-Dec-08 13:00N 35°38' E 139°46'0 0.0
2017-Dec-08 12:28N 35°38' E 139°46'0 0.0
2017-Dec-08 12:00N 35°38' E 139°46'0 0.0
2017-Dec-08 11:30N 35°38' E 139°46'0 0.0
2017-Dec-08 10:57N 35°38' E 139°46'0 0.0
2017-Dec-08 10:30N 35°38' E 139°46'0 0.0
2017-Dec-08 10:00N 35°38' E 139°46'0 0.0
2017-Dec-08 09:29N 35°38' E 139°46'0 0.0
2017-Dec-08 09:00N 35°38' E 139°46'0 0.0
2017-Dec-08 08:29N 35°38' E 139°46'0 0.0
2017-Dec-08 07:59N 35°38' E 139°46'0 0.0
2017-Dec-08 07:21N 35°38' E 139°46'0 0.0
2017-Dec-08 07:00N 35°38' E 139°46'0 0.0
2017-Dec-08 06:30N 35°38' E 139°46'0 0.0
2017-Dec-08 05:52N 35°38' E 139°46'0 0.1
2017-Dec-08 05:30N 35°38' E 139°46'0 0.0
2017-Dec-08 04:56N 35°38' E 139°46'2 3.9
2017-Dec-08 04:30N 35°37' E 139°47'1 1.5
2017-Dec-08 04:00N 35°37' E 139°48'2 0.9
2017-Dec-08 01:29N 35°38' E 139°46'0 0.0
2017-Dec-08 00:42N 35°38' E 139°46'0 0.0
2017-Dec-07 23:59N 35°38' E 139°46'0 0.0
2017-Dec-07 23:30N 35°38' E 139°46'0 0.0
2017-Dec-07 22:56N 35°38' E 139°46'0 0.0
2017-Dec-07 22:23N 35°38' E 139°46'0 0.0
2017-Dec-07 21:55N 35°38' E 139°46'0 0.0
2017-Dec-07 21:29N 35°38' E 139°46'0 0.0
2017-Dec-07 21:00N 35°38' E 139°46'0 0.0
2017-Dec-07 20:28N 35°38' E 139°46'0 0.0
2017-Dec-07 20:00N 35°38' E 139°46'0 0.0
2017-Dec-07 19:30N 35°38' E 139°46'0 0.0
2017-Dec-07 19:00N 35°38' E 139°46'0 0.0
2017-Dec-07 18:30N 35°38' E 139°46'0 0.0
2017-Dec-07 17:59N 35°38' E 139°46'0 0.0
2017-Dec-07 17:30N 35°38' E 139°46'0 0.0
2017-Dec-07 17:00N 35°38' E 139°46'0 0.0
2017-Dec-07 16:28N 35°38' E 139°46'0 0.0
2017-Dec-07 16:00N 35°38' E 139°46'0 0.0
2017-Dec-07 15:30N 35°38' E 139°46'0 0.0
2017-Dec-07 14:57N 35°38' E 139°46'0 0.0
2017-Dec-07 14:25N 35°38' E 139°46'0 0.0
2017-Dec-07 14:00N 35°38' E 139°46'0 0.0
2017-Dec-07 13:30N 35°38' E 139°46'0 0.0
2017-Dec-07 13:00N 35°38' E 139°46'0 0.0
2017-Dec-07 11:47N 35°38' E 139°46'0 0.0
2017-Dec-07 11:14N 35°38' E 139°46'0 0.0
2017-Dec-07 10:55N 35°38' E 139°46'0 0.0
2017-Dec-07 10:03N 35°38' E 139°46'0 0.0
2017-Dec-07 10:00N 35°38' E 139°46'0 0.0
2017-Dec-07 09:14N 35°38' E 139°46'2 7.7
2017-Dec-07 09:00N 35°37' E 139°47'0 0.2
2017-Dec-07 08:30N 35°37' E 139°46'2 2.5
2017-Dec-07 07:50N 35°38' E 139°46'0 0.0
2017-Dec-07 07:22N 35°38' E 139°46'0 0.0
2017-Dec-07 06:59N 35°38' E 139°46'0 0.0
2017-Dec-07 06:25N 35°38' E 139°46'0 0.0
2017-Dec-07 05:53N 35°38' E 139°46'0 0.0
2017-Dec-07 05:30N 35°38' E 139°46'0 0.0
2017-Dec-07 04:59N 35°38' E 139°46'0 0.0
2017-Dec-07 04:24N 35°38' E 139°46'0 0.0
2017-Dec-07 03:59N 35°38' E 139°46'0 0.0
2017-Dec-07 03:27N 35°38' E 139°46'1 1.3
2017-Dec-07 03:00N 35°38' E 139°46'1 1.1
2017-Dec-07 02:30N 35°37' E 139°46'4 7.1
2017-Dec-07 02:01N 35°34' E 139°49'3 5.1
2017-Dec-07 01:29N 35°36' E 139°46'2 5.0
2017-Dec-07 00:59N 35°39' E 139°46'0 0.0
2017-Dec-07 00:29N 35°39' E 139°46'0 0.0
2017-Dec-06 23:38N 35°39' E 139°46'0 0.0
2017-Dec-06 23:29N 35°39' E 139°46'2 4.6
2017-Dec-06 23:00N 35°37' E 139°47'3 5.3
2017-Dec-06 22:31N 35°34' E 139°48'1 1.7
2017-Dec-06 22:01N 35°35' E 139°47'4 4.1
2017-Dec-06 21:00N 35°39' E 139°46'  
2017-Dec-04 00:40N 35°39' E 139°46'210.4
2017-Dec-04 00:31N 35°37' E 139°46'1 2.8
2017-Dec-03 23:59N 35°36' E 139°47'2 3.5
2017-Dec-03 23:30N 35°35' E 139°48'1 2.9
2017-Dec-03 23:00N 35°36' E 139°48'0 0.0
2017-Dec-03 22:30N 35°36' E 139°48'0 0.0
2017-Dec-03 22:00N 35°36' E 139°48'0 0.0
2017-Dec-03 21:29N 35°36' E 139°48'1 1.8
2017-Dec-03 21:00N 35°37' E 139°47'2 3.7
2017-Dec-03 20:29N 35°38' E 139°45'0 0.2
2017-Dec-03 19:58N 35°38' E 139°46'0 0.0
2017-Dec-03 18:12N 35°38' E 139°46'0 0.0
2017-Dec-03 17:58N 35°38' E 139°46'0 0.0
2017-Dec-03 17:30N 35°38' E 139°46'0 0.0
2017-Dec-03 16:59N 35°38' E 139°46'0 0.0
2017-Dec-03 16:29N 35°38' E 139°46'0 0.0
2017-Dec-03 16:00N 35°38' E 139°46'0 0.0
2017-Dec-03 15:30N 35°38' E 139°46'0 0.0
2017-Dec-03 15:00N 35°38' E 139°46'0 0.0
2017-Dec-03 14:30N 35°38' E 139°46'0 0.0
2017-Dec-03 14:00N 35°38' E 139°46'0 0.0
2017-Dec-03 13:28N 35°38' E 139°46'0 0.0
2017-Dec-03 12:59N 35°38' E 139°46'0 0.0
2017-Dec-03 12:30N 35°38' E 139°46'0 0.0
2017-Dec-03 11:58N 35°38' E 139°46'0 0.0
2017-Dec-03 11:30N 35°38' E 139°46'0 0.0
2017-Dec-03 11:00N 35°38' E 139°46'0 0.0
2017-Dec-03 10:16N 35°38' E 139°46'0 0.0
2017-Dec-03 09:59N 35°38' E 139°46'0 0.0
2017-Dec-03 09:30N 35°38' E 139°46'0 0.0
2017-Dec-03 08:51N 35°38' E 139°46'0 0.0
2017-Dec-03 08:09N 35°38' E 139°46'0 0.0
2017-Dec-03 07:59N 35°38' E 139°46'0 0.0
2017-Dec-03 03:55N 35°38' E 139°46'0 0.0
2017-Dec-03 02:35N 35°38' E 139°46'0 0.0
2017-Dec-03 02:26N 35°38' E 139°46'0 0.0
2017-Dec-03 02:00N 35°38' E 139°46'0 0.0
2017-Dec-03 01:30N 35°38' E 139°46'0 0.0
2017-Dec-03 01:00N 35°38' E 139°46'0 0.0
2017-Dec-03 00:30N 35°38' E 139°46'0 0.0
2017-Dec-03 00:00N 35°38' E 139°46'0 0.0
2017-Dec-02 23:30N 35°38' E 139°46'0 0.0
2017-Dec-02 22:57N 35°38' E 139°46'0 0.0
2017-Dec-02 22:30N 35°38' E 139°46'0 0.0
2017-Dec-02 22:00N 35°38' E 139°46'0 0.0
2017-Dec-02 21:30N 35°38' E 139°46'0 0.0
2017-Dec-02 21:00N 35°38' E 139°46'0 0.0
2017-Dec-02 20:30N 35°38' E 139°46'0 0.0
2017-Dec-02 20:00N 35°38' E 139°46'0 0.0
2017-Dec-02 19:30N 35°38' E 139°46'0 0.0
2017-Dec-02 19:00N 35°38' E 139°46'0 0.0
2017-Dec-02 18:30N 35°38' E 139°46'0 0.0
2017-Dec-02 17:53N 35°38' E 139°46'0 0.0
2017-Dec-02 17:18N 35°38' E 139°46'0 0.0
2017-Dec-02 16:58N 35°38' E 139°46'0 0.0
2017-Dec-02 16:30N 35°38' E 139°46'0 0.0
2017-Dec-02 16:00N 35°38' E 139°46'0 0.0
2017-Dec-02 15:30N 35°38' E 139°46'0 0.0
2017-Dec-02 14:59N 35°38' E 139°46'0 0.0
2017-Dec-02 14:27N 35°38' E 139°46'0 0.0
2017-Dec-02 14:00N 35°38' E 139°46'0 0.0
2017-Dec-02 13:30N 35°38' E 139°46'0 0.0
2017-Dec-02 13:00N 35°38' E 139°46'0 0.0
2017-Dec-02 12:30N 35°38' E 139°46'0 0.0
2017-Dec-02 12:00N 35°38' E 139°46'0 0.0
2017-Dec-02 11:30N 35°38' E 139°46'0 0.0
2017-Dec-02 11:00N 35°38' E 139°46'0 0.0
2017-Dec-02 10:30N 35°38' E 139°46'2 3.6
2017-Dec-02 10:00N 35°37' E 139°47'0 0.0
2017-Dec-02 09:30N 35°37' E 139°47'2 4.1
2017-Dec-02 09:00N 35°35' E 139°48'1 2.9
2017-Dec-02 08:31N 35°34' E 139°49'3 5.8
2017-Dec-02 08:00N 35°36' E 139°47'0 0.3
2017-Dec-02 07:30N 35°36' E 139°47'2 4.2
2017-Dec-02 07:01N 35°38' E 139°45'0 0.1
2017-Dec-02 06:30N 35°38' E 139°46'0 0.0
2017-Dec-02 06:00N 35°38' E 139°46'1 1.1
2017-Dec-02 05:30N 35°39' E 139°46'0 0.0
2017-Dec-02 05:01N 35°39' E 139°46'0 0.0
2017-Dec-02 04:30N 35°39' E 139°46'0 0.0
2017-Dec-02 04:00N 35°39' E 139°46'0 0.0
2017-Dec-02 03:20N 35°39' E 139°46'0 0.0
2017-Dec-02 02:58N 35°39' E 139°46'0 0.0
2017-Dec-02 02:30N 35°39' E 139°46'0 0.0
2017-Dec-02 02:00N 35°39' E 139°46'0 0.0
2017-Dec-02 01:31N 35°39' E 139°46'0 0.0
2017-Dec-02 01:00N 35°39' E 139°46'0 0.0
2017-Dec-02 00:30N 35°39' E 139°46'0 0.0
2017-Dec-02 00:00N 35°39' E 139°46'0 0.0
2017-Dec-01 23:30N 35°39' E 139°46'3 5.6
2017-Dec-01 23:00N 35°36' E 139°46'0 0.6
2017-Dec-01 22:30N 35°36' E 139°47'2 4.9
2017-Dec-01 22:00N 35°34' E 139°49'4 8.9
2017-Dec-01 21:30N 35°38' E 139°46'1 1.3
2017-Dec-01 20:50N 35°39' E 139°46'0 0.0
2017-Dec-01 20:30N 35°39' E 139°46'0 0.0
2017-Dec-01 19:50N 35°39' E 139°46'0 0.0
2017-Dec-01 19:14N 35°39' E 139°46'0 0.0
2017-Dec-01 18:50N 35°39' E 139°46'0 0.0
2017-Dec-01 18:28N 35°39' E 139°46'0 0.0
2017-Dec-01 18:00N 35°39' E 139°46'0 0.0
2017-Dec-01 17:16N 35°39' E 139°46'0 0.0
2017-Dec-01 16:59N 35°39' E 139°46'0 0.0
2017-Dec-01 16:30N 35°39' E 139°46'0 0.0
2017-Dec-01 16:00N 35°39' E 139°46'0 0.0
2017-Dec-01 15:29N 35°39' E 139°46'0 0.0
2017-Dec-01 15:00N 35°39' E 139°46'0 0.0
2017-Dec-01 14:30N 35°39' E 139°46'0 0.0
2017-Dec-01 14:00N 35°39' E 139°46'0 0.0
2017-Dec-01 13:30N 35°39' E 139°46'0 0.0
2017-Dec-01 12:56N 35°39' E 139°46'0 0.0
2017-Dec-01 12:18N 35°39' E 139°46'0 0.0
2017-Dec-01 12:00N 35°39' E 139°46'0 0.0
2017-Dec-01 11:29N 35°39' E 139°46'0 0.0
2017-Dec-01 10:58N 35°39' E 139°46'0 0.0
2017-Dec-01 10:30N 35°39' E 139°46'2 4.5
2017-Dec-01 10:01N 35°37' E 139°47'1 1.1
2017-Dec-01 09:31N 35°36' E 139°47'  

Dump ship's entire track history